createdAt,value
2023-02-14T00:01:40.961Z,0.66
2023-02-14T00:04:09.148Z,0.62
2023-02-14T00:06:38.950Z,0.64
2023-02-14T00:09:08.219Z,0.70
2023-02-14T00:11:36.328Z,0.62
2023-02-14T00:14:22.103Z,0.76
2023-02-14T00:16:50.410Z,0.75
2023-02-14T00:19:20.553Z,0.73
2023-02-14T00:21:50.997Z,0.42
2023-02-14T00:24:21.834Z,0.63
2023-02-14T00:26:50.943Z,0.86
2023-02-14T00:29:21.691Z,1.05
2023-02-14T00:31:49.879Z,1.02
2023-02-14T00:34:19.702Z,0.96
2023-02-14T00:36:49.566Z,1.08
2023-02-14T00:39:19.096Z,1.10
2023-02-14T00:41:47.249Z,0.98
2023-02-14T00:44:15.872Z,0.94
2023-02-14T00:46:44.442Z,0.90
2023-02-14T00:49:12.684Z,0.72
2023-02-14T00:51:40.621Z,0.69
2023-02-14T00:54:10.443Z,0.82
2023-02-14T00:56:38.443Z,0.83
2023-02-14T00:59:06.508Z,0.88
2023-02-14T01:01:34.961Z,0.82
2023-02-14T01:04:02.991Z,0.65
2023-02-14T01:06:31.211Z,0.66
2023-02-14T01:08:59.563Z,0.65
2023-02-14T01:11:30.244Z,0.49
2023-02-14T01:13:59.919Z,0.49
2023-02-14T01:16:29.554Z,0.45
2023-02-14T01:18:59.139Z,0.52
2023-02-14T01:21:29.423Z,0.40
2023-02-14T01:24:00.209Z,0.33
2023-02-14T01:26:31.199Z,0.47
2023-02-14T01:28:59.362Z,0.39
2023-02-14T01:31:29.358Z,0.27
2023-02-14T01:33:58.620Z,0.39
2023-02-14T01:36:28.781Z,0.08
2023-02-14T01:38:58.966Z,0.10
2023-02-14T01:41:31.088Z,0.11
2023-02-14T01:44:02.444Z,-0.05
2023-02-14T01:46:32.137Z,-0.11
2023-02-14T01:49:05.973Z,0.11
2023-02-14T01:51:37.366Z,0.13
2023-02-14T01:54:07.658Z,-0.08
2023-02-14T01:56:42.693Z,-0.02
2023-02-14T01:59:14.594Z,-0.22
2023-02-14T02:01:43.528Z,-0.36
2023-02-14T02:04:17.491Z,-0.27
2023-02-14T02:06:49.879Z,-0.17
2023-02-14T02:09:21.838Z,-0.30
2023-02-14T02:11:51.353Z,-0.27
2023-02-14T02:14:21.963Z,-0.13
2023-02-14T02:17:11.262Z,-0.19
2023-02-14T02:20:18.950Z,-0.24
2023-02-14T02:23:09.565Z,-0.23
2023-02-14T02:26:31.364Z,-0.23
2023-02-14T02:29:44.844Z,-0.15
2023-02-14T02:32:39.384Z,-0.09
2023-02-14T02:35:23.654Z,-0.13
2023-02-14T02:38:07.946Z,-0.04
2023-02-14T02:40:48.859Z,0.23
2023-02-14T02:43:32.550Z,0.28
2023-02-14T02:46:22.145Z,0.59
2023-02-14T02:48:58.809Z,0.41
2023-02-14T02:51:56.332Z,0.26
2023-02-14T02:54:35.341Z,0.27
2023-02-14T02:57:05.958Z,0.39
2023-02-14T02:59:39.532Z,0.49
2023-02-14T03:02:11.470Z,0.50
2023-02-14T03:04:55.445Z,0.60
2023-02-14T03:07:36.096Z,0.79
2023-02-14T03:10:09.576Z,1.07
2023-02-14T03:12:52.460Z,0.78
2023-02-14T03:15:29.969Z,0.93
2023-02-14T03:18:21.813Z,0.63
2023-02-14T03:20:56.546Z,0.63
2023-02-14T03:23:30.854Z,0.56
2023-02-14T03:26:10.404Z,0.54
2023-02-14T03:28:45.011Z,0.85
2023-02-14T03:31:21.812Z,0.72
2023-02-14T03:33:57.081Z,0.81
2023-02-14T03:36:30.985Z,0.67
2023-02-14T03:39:07.345Z,0.58
2023-02-14T03:41:40.086Z,0.69
2023-02-14T03:44:11.462Z,0.60
2023-02-14T03:46:46.898Z,1.09
2023-02-14T03:49:19.506Z,1.33
2023-02-14T03:51:51.119Z,1.06
2023-02-14T03:54:22.341Z,1.05
2023-02-14T03:56:53.727Z,0.98
2023-02-14T03:59:24.462Z,1.19
2023-02-14T04:01:59.280Z,1.20
2023-02-14T04:04:29.988Z,1.34
2023-02-14T04:06:57.906Z,1.43
2023-02-14T04:09:27.612Z,1.65
2023-02-14T04:11:55.493Z,1.74
2023-02-14T04:14:25.217Z,1.71
2023-02-14T04:17:11.293Z,1.74
2023-02-14T04:19:39.033Z,1.70
2023-02-14T04:22:07.028Z,1.82
2023-02-14T04:24:36.804Z,1.82
2023-02-14T04:27:13.935Z,1.80
2023-02-14T04:29:44.131Z,1.91
2023-02-14T04:32:15.102Z,2.03
2023-02-14T04:34:44.941Z,1.97
2023-02-14T04:37:13.410Z,1.98
2023-02-14T04:39:43.333Z,1.75
2023-02-14T04:42:12.288Z,1.84
2023-02-14T04:44:40.784Z,2.01
2023-02-14T04:47:09.583Z,1.85
2023-02-14T04:49:38.663Z,1.81
2023-02-14T04:52:07.814Z,2.06
2023-02-14T04:54:36.384Z,2.19
2023-02-14T04:57:06.726Z,2.23
2023-02-14T04:59:34.856Z,1.85
2023-02-14T05:02:03.300Z,1.86
2023-02-14T05:04:32.240Z,2.05
2023-02-14T05:07:00.372Z,2.26
2023-02-14T05:09:29.482Z,1.91
2023-02-14T05:11:58.175Z,2.17
2023-02-14T05:14:27.779Z,2.26
2023-02-14T05:16:56.293Z,2.47
2023-02-14T05:19:25.357Z,1.84
2023-02-14T05:21:54.058Z,2.36
2023-02-14T05:24:22.589Z,2.23
2023-02-14T05:26:51.284Z,2.08
2023-02-14T05:29:19.614Z,2.30
2023-02-14T05:31:49.295Z,2.07
2023-02-14T05:34:19.592Z,2.19
2023-02-14T05:36:48.817Z,2.36
2023-02-14T05:39:17.126Z,2.25
2023-02-14T05:41:46.063Z,1.92
2023-02-14T05:44:14.468Z,1.57
2023-02-14T05:46:43.381Z,1.85
2023-02-14T05:49:14.249Z,1.95
2023-02-14T05:51:43.096Z,1.94
2023-02-14T05:54:11.529Z,1.62
2023-02-14T05:56:40.282Z,1.58
2023-02-14T05:59:08.953Z,1.93
2023-02-14T06:01:37.852Z,2.04
2023-02-14T06:04:06.759Z,1.63
2023-02-14T06:06:36.836Z,1.67
2023-02-14T06:09:05.495Z,2.13
2023-02-14T06:11:34.367Z,1.40
2023-02-14T06:14:03.092Z,1.43
2023-02-14T06:16:31.508Z,1.80
2023-02-14T06:19:00.436Z,1.89
2023-02-14T06:21:28.595Z,2.00
2023-02-14T06:23:58.433Z,1.62
2023-02-14T06:26:28.715Z,1.97
2023-02-14T06:28:58.673Z,1.92
2023-02-14T06:31:27.764Z,1.74
2023-02-14T06:33:57.637Z,1.99
2023-02-14T06:36:26.064Z,1.84
2023-02-14T06:38:54.707Z,1.55
2023-02-14T06:41:24.740Z,1.91
2023-02-14T06:43:53.611Z,2.09
2023-02-14T06:46:22.013Z,1.86
2023-02-14T06:48:51.090Z,2.15
2023-02-14T06:51:19.601Z,2.12
2023-02-14T06:53:47.994Z,1.84
2023-02-14T06:56:17.077Z,2.02
2023-02-14T06:58:46.973Z,1.79
2023-02-14T07:01:15.465Z,1.83
2023-02-14T07:03:44.798Z,1.93
2023-02-14T07:06:13.615Z,1.95
2023-02-14T07:08:42.472Z,1.89
2023-02-14T07:11:11.442Z,1.49
2023-02-14T07:13:39.694Z,1.39
2023-02-14T07:16:09.341Z,1.72
2023-02-14T07:18:38.391Z,2.15
2023-02-14T07:21:07.428Z,1.95
2023-02-14T07:23:36.182Z,1.93
2023-02-14T07:26:05.209Z,1.80
2023-02-14T07:28:33.794Z,1.63
2023-02-14T07:31:02.835Z,1.96
2023-02-14T07:33:33.324Z,1.73
2023-02-14T07:36:06.619Z,2.02
2023-02-14T07:38:35.531Z,2.37
2023-02-14T07:41:04.424Z,2.59
2023-02-14T07:43:34.551Z,2.95
2023-02-14T07:46:04.113Z,2.45
2023-02-14T07:48:34.621Z,2.76
2023-02-14T07:51:03.860Z,2.37
2023-02-14T07:53:32.903Z,2.42
2023-02-14T07:56:01.200Z,2.45
2023-02-14T07:58:29.899Z,2.52
2023-02-14T08:00:58.690Z,2.82
2023-02-14T08:03:27.246Z,2.87
2023-02-14T08:05:58.839Z,2.75
2023-02-14T08:08:28.088Z,2.57
2023-02-14T08:10:57.143Z,2.76
2023-02-14T08:13:24.548Z,1.94
2023-02-14T08:16:10.128Z,2.04
2023-02-14T08:18:41.085Z,2.99
2023-02-14T08:21:13.021Z,3.30
2023-02-14T08:23:41.478Z,3.43
2023-02-14T08:26:10.216Z,2.89
2023-02-14T08:28:39.414Z,3.26
2023-02-14T08:31:08.596Z,3.08
2023-02-14T08:33:37.133Z,3.14
2023-02-14T08:36:06.918Z,3.04
2023-02-14T08:38:36.597Z,3.38
2023-02-14T08:41:08.872Z,3.57
2023-02-14T08:43:38.575Z,3.30
2023-02-14T08:46:07.437Z,3.16
2023-02-14T08:48:39.174Z,3.46
2023-02-14T08:51:08.900Z,3.14
2023-02-14T08:53:38.924Z,3.43
2023-02-14T08:56:09.825Z,3.77
2023-02-14T08:58:38.737Z,3.88
2023-02-14T09:01:11.249Z,3.85
2023-02-14T09:03:39.666Z,3.85
2023-02-14T09:06:10.324Z,3.86
2023-02-14T09:08:40.919Z,4.37
2023-02-14T09:11:10.984Z,4.22
2023-02-14T09:13:39.424Z,4.10
2023-02-14T09:16:09.380Z,3.49
2023-02-14T09:18:38.492Z,3.31
2023-02-14T09:21:10.277Z,4.27
2023-02-14T09:23:41.130Z,4.01
2023-02-14T09:26:12.836Z,3.40
2023-02-14T09:28:42.579Z,4.08
2023-02-14T09:31:12.771Z,3.62
2023-02-14T09:33:41.664Z,4.65
2023-02-14T09:36:28.611Z,3.74
2023-02-14T09:38:58.675Z,4.30
2023-02-14T09:41:50.967Z,4.22
2023-02-14T09:44:29.546Z,4.31
2023-02-14T09:47:03.736Z,4.75
2023-02-14T09:49:35.729Z,5.16
2023-02-14T09:52:07.620Z,4.55
2023-02-14T09:54:38.478Z,4.61
2023-02-14T09:57:13.273Z,5.08
2023-02-14T09:59:48.972Z,5.77
2023-02-14T10:02:39.649Z,5.50
2023-02-14T10:05:14.997Z,5.72
2023-02-14T10:08:00.148Z,5.28
2023-02-14T10:10:39.574Z,5.12
2023-02-14T10:13:16.952Z,5.15
2023-02-14T10:15:47.533Z,4.69
2023-02-14T10:18:20.900Z,4.08
2023-02-14T10:20:53.143Z,5.15
2023-02-14T10:23:31.060Z,4.83
2023-02-14T10:26:03.030Z,5.48
2023-02-14T10:28:35.150Z,5.62
2023-02-14T10:31:19.206Z,5.92
2023-02-14T10:33:57.395Z,4.87
2023-02-14T10:36:42.770Z,5.19
2023-02-14T10:39:28.132Z,5.13
2023-02-14T10:42:06.586Z,5.32
2023-02-14T10:44:47.235Z,6.14
2023-02-14T10:47:30.715Z,6.11
2023-02-14T10:50:09.431Z,5.04
2023-02-14T10:52:48.423Z,5.15
2023-02-14T10:55:31.810Z,5.32
2023-02-14T10:58:06.474Z,4.57
2023-02-14T11:00:39.003Z,5.54
2023-02-14T11:03:11.195Z,6.20
2023-02-14T11:05:46.711Z,6.51
2023-02-14T11:08:26.500Z,6.34
2023-02-14T11:10:57.554Z,5.80
2023-02-14T11:13:36.681Z,6.26
2023-02-14T11:16:07.530Z,6.66
2023-02-14T11:18:37.535Z,6.53
2023-02-14T11:21:09.684Z,6.13
2023-02-14T11:23:41.258Z,5.91
2023-02-14T11:26:17.160Z,6.19
2023-02-14T11:28:53.892Z,6.00
2023-02-14T11:31:35.095Z,6.63
2023-02-14T11:34:06.683Z,6.87
2023-02-14T11:36:43.448Z,6.15
2023-02-14T11:39:27.863Z,6.91
2023-02-14T11:41:58.232Z,6.62
2023-02-14T11:44:30.356Z,6.11
2023-02-14T11:47:18.227Z,5.78
2023-02-14T11:49:57.663Z,6.65
2023-02-14T11:52:30.249Z,6.39
2023-02-14T11:54:59.889Z,6.01
2023-02-14T11:57:33.296Z,6.46
2023-02-14T12:00:06.034Z,6.26
2023-02-14T12:02:41.373Z,7.31
2023-02-14T12:05:21.807Z,6.67
2023-02-14T12:07:53.449Z,6.65
2023-02-14T12:10:26.202Z,6.69
2023-02-14T12:13:01.869Z,7.13
2023-02-14T12:15:37.966Z,7.27
2023-02-14T12:18:35.578Z,6.90
2023-02-14T12:21:26.062Z,6.24
2023-02-14T12:24:02.422Z,7.07
2023-02-14T12:26:35.090Z,6.67
2023-02-14T12:29:11.526Z,6.81
2023-02-14T12:31:41.805Z,6.50
2023-02-14T12:34:13.428Z,6.17
2023-02-14T12:37:09.610Z,6.69
2023-02-14T12:39:50.070Z,6.15
2023-02-14T12:42:32.980Z,6.36
2023-02-14T12:45:10.522Z,6.73
2023-02-14T12:47:45.993Z,6.40
2023-02-14T12:50:34.232Z,6.35
2023-02-14T12:53:34.904Z,6.77
2023-02-14T12:56:11.530Z,6.36
2023-02-14T12:58:50.864Z,7.01
2023-02-14T13:01:42.017Z,6.99
2023-02-14T13:04:48.567Z,6.55
2023-02-14T13:07:38.767Z,6.23
2023-02-14T13:10:16.051Z,7.19
2023-02-14T13:12:50.618Z,6.05
2023-02-14T13:15:28.973Z,6.63
2023-02-14T13:18:06.149Z,6.23
2023-02-14T13:20:44.238Z,6.55
2023-02-14T13:23:20.749Z,6.29
2023-02-14T13:25:55.467Z,6.10
2023-02-14T13:28:24.400Z,5.63
2023-02-14T13:30:52.898Z,5.95
2023-02-14T13:33:31.457Z,5.67
2023-02-14T13:36:04.226Z,5.71
2023-02-14T13:38:34.772Z,5.67
2023-02-14T13:41:05.973Z,5.89
2023-02-14T13:43:53.864Z,6.48
2023-02-14T13:46:47.455Z,6.63
2023-02-14T13:49:27.564Z,6.50
2023-02-14T13:51:57.399Z,6.18
2023-02-14T13:54:37.685Z,6.60
2023-02-14T13:57:28.476Z,6.20
2023-02-14T14:00:37.185Z,6.46
2023-02-14T14:03:07.449Z,6.81
2023-02-14T14:06:05.457Z,6.54
2023-02-14T14:08:44.888Z,6.40
2023-02-14T14:12:02.332Z,6.46
2023-02-14T14:14:36.515Z,6.33
2023-02-14T14:17:26.570Z,5.44
2023-02-14T14:19:55.513Z,5.32
2023-02-14T14:22:24.110Z,5.72
2023-02-14T14:25:04.379Z,5.38
2023-02-14T14:27:37.133Z,5.60
2023-02-14T14:30:17.465Z,5.40
2023-02-14T14:32:45.812Z,5.43
2023-02-14T14:35:21.741Z,5.43
2023-02-14T14:37:52.789Z,6.06
2023-02-14T14:40:26.913Z,5.98
2023-02-14T14:42:58.741Z,5.79
2023-02-14T14:45:29.667Z,5.75
2023-02-14T14:48:00.478Z,5.48
2023-02-14T14:50:30.997Z,5.38
2023-02-14T14:53:02.623Z,5.43
2023-02-14T14:55:34.102Z,5.65
2023-02-14T14:58:06.783Z,5.30
2023-02-14T15:00:37.095Z,5.79
2023-02-14T15:03:08.372Z,5.42
2023-02-14T15:05:39.000Z,4.91
2023-02-14T15:08:18.703Z,5.28
2023-02-14T15:10:53.023Z,5.68
2023-02-14T15:13:51.827Z,5.64
2023-02-14T15:16:22.743Z,5.66
2023-02-14T15:18:53.039Z,5.68
2023-02-14T15:21:21.736Z,5.01
2023-02-14T15:23:51.024Z,5.19
2023-02-14T15:26:24.264Z,5.58
2023-02-14T15:29:00.138Z,5.48
2023-02-14T15:31:33.026Z,5.00
2023-02-14T15:34:03.711Z,5.02
2023-02-14T15:36:34.021Z,5.34
2023-02-14T15:39:08.420Z,4.43
2023-02-14T15:41:37.310Z,5.03
2023-02-14T15:44:07.213Z,4.32
2023-02-14T15:46:38.796Z,4.22
2023-02-14T15:49:12.090Z,4.65
2023-02-14T15:51:41.299Z,4.43
2023-02-14T15:54:20.580Z,4.36
2023-02-14T15:56:52.042Z,4.59
2023-02-14T15:59:26.343Z,4.48
2023-02-14T16:01:58.918Z,4.56
2023-02-14T16:04:30.057Z,4.45
2023-02-14T16:07:24.025Z,4.38
2023-02-14T16:10:13.332Z,4.68
2023-02-14T16:12:42.885Z,4.65
2023-02-14T16:15:21.551Z,4.61
2023-02-14T16:17:50.702Z,4.26
2023-02-14T16:20:27.211Z,4.36
2023-02-14T16:23:16.817Z,3.99
2023-02-14T16:25:45.677Z,4.16
2023-02-14T16:28:14.438Z,4.28
2023-02-14T16:30:46.002Z,4.31
2023-02-14T16:33:21.351Z,4.33
2023-02-14T16:35:51.489Z,4.11
2023-02-14T16:38:21.740Z,4.31
2023-02-14T16:40:52.993Z,3.99
2023-02-14T16:43:22.348Z,4.12
2023-02-14T16:45:52.278Z,3.38
2023-02-14T16:48:20.865Z,3.34
2023-02-14T16:50:49.055Z,3.36
2023-02-14T16:53:36.369Z,3.64
2023-02-14T16:56:04.801Z,3.15
2023-02-14T16:58:36.752Z,3.27
2023-02-14T17:01:07.086Z,3.17
2023-02-14T17:03:35.517Z,3.44
2023-02-14T17:06:05.134Z,3.29
2023-02-14T17:08:33.727Z,3.27
2023-02-14T17:11:04.859Z,3.35
2023-02-14T17:13:38.193Z,3.15
2023-02-14T17:16:12.252Z,3.23
2023-02-14T17:18:46.319Z,3.21
2023-02-14T17:21:16.827Z,3.05
2023-02-14T17:23:44.933Z,3.18
2023-02-14T17:26:14.276Z,3.00
2023-02-14T17:28:42.903Z,3.20
2023-02-14T17:31:12.890Z,3.26
2023-02-14T17:33:41.163Z,2.99
2023-02-14T17:36:12.297Z,2.90
2023-02-14T17:38:43.412Z,2.81
2023-02-14T17:41:18.667Z,2.85
2023-02-14T17:43:48.373Z,2.75
2023-02-14T17:46:20.088Z,3.00
2023-02-14T17:48:49.194Z,3.09
2023-02-14T17:51:20.834Z,3.08
2023-02-14T17:53:49.730Z,2.83
2023-02-14T17:56:20.497Z,3.12
2023-02-14T17:58:51.213Z,3.06
2023-02-14T18:01:25.146Z,3.12
2023-02-14T18:03:55.644Z,2.64
2023-02-14T18:06:24.466Z,2.83
2023-02-14T18:08:56.763Z,2.92
2023-02-14T18:11:27.256Z,2.75
2023-02-14T18:13:56.388Z,3.19
2023-02-14T18:16:26.754Z,2.93
2023-02-14T18:18:55.048Z,2.71
2023-02-14T18:21:24.709Z,2.80
2023-02-14T18:23:53.842Z,2.82
2023-02-14T18:26:22.136Z,3.19
2023-02-14T18:28:51.347Z,3.22
2023-02-14T18:31:20.635Z,3.24
2023-02-14T18:33:51.645Z,3.32
2023-02-14T18:36:24.737Z,3.20
2023-02-14T18:38:55.083Z,3.47
2023-02-14T18:41:24.499Z,3.72
2023-02-14T18:43:53.993Z,3.48
2023-02-14T18:46:24.120Z,3.40
2023-02-14T18:48:55.094Z,3.17
2023-02-14T18:51:25.290Z,3.37
2023-02-14T18:53:55.537Z,2.95
2023-02-14T18:56:25.749Z,3.25
2023-02-14T18:58:57.881Z,2.90
2023-02-14T19:01:30.725Z,3.21
2023-02-14T19:04:02.034Z,3.01
2023-02-14T19:06:32.235Z,2.90
2023-02-14T19:09:00.500Z,3.17
2023-02-14T19:11:32.042Z,2.87
2023-02-14T19:14:03.194Z,2.57
2023-02-14T19:16:37.351Z,2.57
2023-02-14T19:19:07.024Z,2.59
2023-02-14T19:21:37.238Z,2.79
2023-02-14T19:24:08.591Z,3.01
2023-02-14T19:26:40.506Z,3.03
2023-02-14T19:29:11.660Z,3.12
2023-02-14T19:31:41.800Z,3.22
2023-02-14T19:34:17.866Z,2.41
2023-02-14T19:36:46.321Z,2.43
2023-02-14T19:39:15.179Z,2.58
2023-02-14T19:41:44.478Z,2.66
2023-02-14T19:44:15.060Z,2.51
2023-02-14T19:46:44.581Z,2.57
2023-02-14T19:49:16.891Z,2.64
2023-02-14T19:51:46.372Z,2.74
2023-02-14T19:54:15.678Z,2.47
2023-02-14T19:56:49.478Z,2.49
2023-02-14T19:59:23.165Z,2.16
2023-02-14T20:01:54.163Z,2.61
2023-02-14T20:04:26.100Z,2.59
2023-02-14T20:06:56.950Z,2.17
2023-02-14T20:09:26.468Z,1.99
2023-02-14T20:11:58.119Z,2.12
2023-02-14T20:14:30.516Z,2.39
2023-02-14T20:17:01.901Z,2.03
2023-02-14T20:19:38.279Z,2.01
2023-02-14T20:22:09.013Z,2.20
2023-02-14T20:24:40.077Z,2.29
2023-02-14T20:27:09.716Z,2.11
2023-02-14T20:29:40.086Z,2.11
2023-02-14T20:32:10.344Z,2.25
2023-02-14T20:34:41.281Z,2.39
2023-02-14T20:37:14.829Z,2.27
2023-02-14T20:39:44.095Z,2.18
2023-02-14T20:42:20.492Z,2.27
2023-02-14T20:44:49.110Z,2.25
2023-02-14T20:47:21.473Z,2.10
2023-02-14T20:49:51.185Z,2.11
2023-02-14T20:52:20.157Z,2.26
2023-02-14T20:54:49.411Z,2.34
2023-02-14T20:57:18.336Z,2.09
2023-02-14T20:59:47.585Z,2.16
2023-02-14T21:02:16.653Z,2.11
2023-02-14T21:04:45.728Z,2.30
2023-02-14T21:07:16.654Z,2.34
2023-02-14T21:09:45.459Z,2.08
2023-02-14T21:12:14.075Z,1.86
2023-02-14T21:14:43.278Z,1.97
2023-02-14T21:17:12.334Z,2.17
2023-02-14T21:19:49.587Z,1.84
2023-02-14T21:22:22.299Z,1.83
2023-02-14T21:24:51.635Z,1.77
2023-02-14T21:27:21.282Z,1.69
2023-02-14T21:29:58.787Z,1.90
2023-02-14T21:32:28.843Z,2.07
2023-02-14T21:34:57.478Z,2.15
2023-02-14T21:37:27.112Z,2.19
2023-02-14T21:39:55.722Z,2.14
2023-02-14T21:42:26.867Z,2.12
2023-02-14T21:45:12.954Z,2.11
2023-02-14T21:47:46.560Z,2.16
2023-02-14T21:50:35.201Z,2.27
2023-02-14T21:53:08.492Z,2.05
2023-02-14T21:55:43.144Z,1.87
2023-02-14T21:58:31.062Z,1.92
2023-02-14T22:01:07.611Z,2.13
2023-02-14T22:03:36.913Z,1.75
2023-02-14T22:06:06.973Z,1.83
2023-02-14T22:08:36.518Z,1.66
2023-02-14T22:11:08.135Z,1.85
2023-02-14T22:13:38.053Z,1.85
2023-02-14T22:16:09.399Z,1.88
2023-02-14T22:18:38.042Z,2.07
2023-02-14T22:21:08.790Z,2.33
2023-02-14T22:23:39.716Z,2.18
2023-02-14T22:26:13.206Z,2.38
2023-02-14T22:28:42.775Z,2.22
2023-02-14T22:31:11.560Z,1.99
2023-02-14T22:33:39.873Z,2.41
2023-02-14T22:36:09.952Z,1.79
2023-02-14T22:38:40.027Z,2.02
2023-02-14T22:41:10.905Z,2.04
2023-02-14T22:43:40.242Z,1.93
2023-02-14T22:46:12.052Z,2.02
2023-02-14T22:48:40.955Z,1.83
2023-02-14T22:51:12.711Z,1.73
2023-02-14T22:53:43.242Z,1.70
2023-02-14T22:56:14.123Z,1.71
2023-02-14T22:58:42.402Z,1.76
2023-02-14T23:01:15.462Z,2.07
2023-02-14T23:03:44.102Z,2.32
2023-02-14T23:06:13.415Z,1.96
2023-02-14T23:08:45.461Z,1.97
2023-02-14T23:11:16.526Z,1.81
2023-02-14T23:14:02.443Z,1.88
2023-02-14T23:16:48.113Z,2.09
2023-02-14T23:19:35.865Z,2.18
2023-02-14T23:22:07.006Z,2.28
2023-02-14T23:24:36.912Z,2.02
2023-02-14T23:27:05.735Z,2.08
2023-02-14T23:29:34.355Z,1.98
2023-02-14T23:32:03.242Z,2.02
2023-02-14T23:34:34.471Z,1.81
2023-02-14T23:37:03.770Z,2.11
2023-02-14T23:39:35.698Z,2.11
2023-02-14T23:42:06.497Z,1.67
2023-02-14T23:44:35.781Z,1.61
2023-02-14T23:47:06.402Z,1.92
2023-02-14T23:49:35.806Z,1.62
2023-02-14T23:52:06.952Z,1.74
2023-02-14T23:54:36.191Z,1.64
2023-02-14T23:57:08.485Z,1.33
2023-02-14T23:59:37.403Z,1.37
